sensor_id;sensor_type;location;lat;lon;timestamp;P1;durP1;ratioP1;P2;durP2;ratioP2
38513;SDS011;24282;48.400;10.808;2023-07-13T00:01:47;3.38;;;1.80;;
38513;SDS011;24282;48.400;10.808;2023-07-13T00:04:18;2.85;;;1.80;;
38513;SDS011;24282;48.400;10.808;2023-07-13T00:06:45;2.78;;;1.65;;
38513;SDS011;24282;48.400;10.808;2023-07-13T00:09:15;2.60;;;1.80;;
38513;SDS011;24282;48.400;10.808;2023-07-13T00:11:42;2.05;;;1.80;;
38513;SDS011;24282;48.400;10.808;2023-07-13T00:14:09;2.03;;;1.70;;
38513;SDS011;24282;48.400;10.808;2023-07-13T00:16:36;2.20;;;1.90;;
38513;SDS011;24282;48.400;10.808;2023-07-13T00:19:03;3.03;;;1.77;;
38513;SDS011;24282;48.400;10.808;2023-07-13T00:21:30;2.40;;;1.70;;
38513;SDS011;24282;48.400;10.808;2023-07-13T00:23:55;3.40;;;1.77;;
38513;SDS011;24282;48.400;10.808;2023-07-13T00:26:21;2.38;;;2.00;;
38513;SDS011;24282;48.400;10.808;2023-07-13T00:28:49;2.67;;;1.95;;
38513;SDS011;24282;48.400;10.808;2023-07-13T00:31:16;2.35;;;1.83;;
38513;SDS011;24282;48.400;10.808;2023-07-13T00:33:42;3.13;;;2.10;;
38513;SDS011;24282;48.400;10.808;2023-07-13T00:36:09;2.22;;;1.77;;
38513;SDS011;24282;48.400;10.808;2023-07-13T00:38:36;2.13;;;1.88;;
38513;SDS011;24282;48.400;10.808;2023-07-13T00:41:02;2.40;;;2.00;;
38513;SDS011;24282;48.400;10.808;2023-07-13T00:43:29;3.65;;;2.25;;
38513;SDS011;24282;48.400;10.808;2023-07-13T00:48:23;3.30;;;2.40;;
38513;SDS011;24282;48.400;10.808;2023-07-13T00:50:52;5.65;;;3.00;;
38513;SDS011;24282;48.400;10.808;2023-07-13T00:53:20;2.75;;;2.38;;
38513;SDS011;24282;48.400;10.808;2023-07-13T00:55:49;2.72;;;2.22;;
38513;SDS011;24282;48.400;10.808;2023-07-13T00:58:15;3.42;;;2.35;;
38513;SDS011;24282;48.400;10.808;2023-07-13T01:00:41;4.50;;;2.60;;
38513;SDS011;24282;48.400;10.808;2023-07-13T01:03:08;4.43;;;2.42;;
38513;SDS011;24282;48.400;10.808;2023-07-13T01:05:35;3.13;;;2.45;;
38513;SDS011;24282;48.400;10.808;2023-07-13T01:08:02;2.42;;;2.20;;
38513;SDS011;24282;48.400;10.808;2023-07-13T01:10:32;2.88;;;2.40;;
38513;SDS011;24282;48.400;10.808;2023-07-13T01:13:04;3.75;;;2.38;;
38513;SDS011;24282;48.400;10.808;2023-07-13T01:18:13;3.10;;;2.63;;
38513;SDS011;24282;48.400;10.808;2023-07-13T01:20:41;2.45;;;2.22;;
38513;SDS011;24282;48.400;10.808;2023-07-13T01:23:21;4.25;;;2.70;;
38513;SDS011;24282;48.400;10.808;2023-07-13T01:25:48;3.08;;;2.50;;
38513;SDS011;24282;48.400;10.808;2023-07-13T01:28:13;2.78;;;2.38;;
38513;SDS011;24282;48.400;10.808;2023-07-13T01:30:42;3.15;;;2.58;;
38513;SDS011;24282;48.400;10.808;2023-07-13T01:33:11;2.95;;;2.50;;
38513;SDS011;24282;48.400;10.808;2023-07-13T01:35:38;2.80;;;2.38;;
38513;SDS011;24282;48.400;10.808;2023-07-13T01:38:04;3.10;;;2.70;;
38513;SDS011;24282;48.400;10.808;2023-07-13T01:40:30;3.67;;;3.08;;
38513;SDS011;24282;48.400;10.808;2023-07-13T01:42:57;3.15;;;2.65;;
38513;SDS011;24282;48.400;10.808;2023-07-13T01:45:24;2.90;;;2.60;;
38513;SDS011;24282;48.400;10.808;2023-07-13T01:47:49;3.40;;;3.10;;
38513;SDS011;24282;48.400;10.808;2023-07-13T01:50:15;3.80;;;2.85;;
38513;SDS011;24282;48.400;10.808;2023-07-13T01:52:41;4.78;;;3.17;;
38513;SDS011;24282;48.400;10.808;2023-07-13T01:55:07;3.15;;;2.80;;
38513;SDS011;24282;48.400;10.808;2023-07-13T01:57:33;5.00;;;3.20;;
38513;SDS011;24282;48.400;10.808;2023-07-13T01:59:59;5.15;;;3.50;;
38513;SDS011;24282;48.400;10.808;2023-07-13T02:02:28;4.15;;;3.25;;
38513;SDS011;24282;48.400;10.808;2023-07-13T02:04:53;4.25;;;3.33;;
38513;SDS011;24282;48.400;10.808;2023-07-13T02:07:22;4.03;;;3.08;;
38513;SDS011;24282;48.400;10.808;2023-07-13T02:09:47;3.22;;;2.90;;
38513;SDS011;24282;48.400;10.808;2023-07-13T02:12:16;4.57;;;3.25;;
38513;SDS011;24282;48.400;10.808;2023-07-13T02:14:42;3.55;;;3.13;;
38513;SDS011;24282;48.400;10.808;2023-07-13T02:17:09;4.35;;;3.15;;
38513;SDS011;24282;48.400;10.808;2023-07-13T02:19:35;4.15;;;2.97;;
38513;SDS011;24282;48.400;10.808;2023-07-13T02:22:01;3.72;;;3.10;;
38513;SDS011;24282;48.400;10.808;2023-07-13T02:24:27;3.63;;;2.75;;
38513;SDS011;24282;48.400;10.808;2023-07-13T02:26:53;3.65;;;2.85;;
38513;SDS011;24282;48.400;10.808;2023-07-13T02:29:19;2.85;;;2.40;;
38513;SDS011;24282;48.400;10.808;2023-07-13T02:31:45;2.70;;;2.35;;
38513;SDS011;24282;48.400;10.808;2023-07-13T02:34:11;3.03;;;2.38;;
38513;SDS011;24282;48.400;10.808;2023-07-13T02:36:36;3.28;;;2.50;;
38513;SDS011;24282;48.400;10.808;2023-07-13T02:39:03;3.28;;;2.55;;
38513;SDS011;24282;48.400;10.808;2023-07-13T02:41:30;2.55;;;2.35;;
38513;SDS011;24282;48.400;10.808;2023-07-13T02:43:57;2.90;;;2.30;;
38513;SDS011;24282;48.400;10.808;2023-07-13T02:46:32;3.58;;;2.88;;
38513;SDS011;24282;48.400;10.808;2023-07-13T02:48:59;3.05;;;2.35;;
38513;SDS011;24282;48.400;10.808;2023-07-13T02:51:25;3.63;;;2.58;;
38513;SDS011;24282;48.400;10.808;2023-07-13T02:53:51;3.90;;;2.58;;
38513;SDS011;24282;48.400;10.808;2023-07-13T02:56:24;5.88;;;2.60;;
38513;SDS011;24282;48.400;10.808;2023-07-13T02:58:52;2.75;;;2.30;;
38513;SDS011;24282;48.400;10.808;2023-07-13T03:01:19;4.90;;;3.58;;
38513;SDS011;24282;48.400;10.808;2023-07-13T03:03:46;4.22;;;3.50;;
38513;SDS011;24282;48.400;10.808;2023-07-13T03:06:12;3.47;;;2.45;;
38513;SDS011;24282;48.400;10.808;2023-07-13T03:08:46;2.55;;;2.28;;
38513;SDS011;24282;48.400;10.808;2023-07-13T03:11:13;2.65;;;2.25;;
38513;SDS011;24282;48.400;10.808;2023-07-13T03:13:43;5.25;;;2.67;;
38513;SDS011;24282;48.400;10.808;2023-07-13T03:16:10;3.25;;;2.33;;
38513;SDS011;24282;48.400;10.808;2023-07-13T03:18:37;3.78;;;2.25;;
38513;SDS011;24282;48.400;10.808;2023-07-13T03:21:06;3.38;;;2.40;;
38513;SDS011;24282;48.400;10.808;2023-07-13T03:23:33;3.40;;;2.30;;
38513;SDS011;24282;48.400;10.808;2023-07-13T03:26:11;3.25;;;2.35;;
38513;SDS011;24282;48.400;10.808;2023-07-13T03:28:40;2.83;;;2.00;;
38513;SDS011;24282;48.400;10.808;2023-07-13T03:31:11;3.03;;;2.38;;
38513;SDS011;24282;48.400;10.808;2023-07-13T03:33:40;2.90;;;1.83;;
38513;SDS011;24282;48.400;10.808;2023-07-13T03:36:07;3.70;;;1.98;;
38513;SDS011;24282;48.400;10.808;2023-07-13T03:38:34;3.38;;;2.60;;
38513;SDS011;24282;48.400;10.808;2023-07-13T03:41:03;2.83;;;2.03;;
38513;SDS011;24282;48.400;10.808;2023-07-13T03:43:29;2.40;;;2.05;;
38513;SDS011;24282;48.400;10.808;2023-07-13T03:45:55;2.42;;;1.77;;
38513;SDS011;24282;48.400;10.808;2023-07-13T03:48:21;2.92;;;2.17;;
38513;SDS011;24282;48.400;10.808;2023-07-13T03:50:47;3.33;;;2.40;;
38513;SDS011;24282;48.400;10.808;2023-07-13T03:53:14;3.28;;;2.10;;
38513;SDS011;24282;48.400;10.808;2023-07-13T03:55:40;2.63;;;2.15;;
38513;SDS011;24282;48.400;10.808;2023-07-13T04:00:53;2.72;;;1.85;;
38513;SDS011;24282;48.400;10.808;2023-07-13T04:03:19;2.90;;;2.30;;
38513;SDS011;24282;48.400;10.808;2023-07-13T04:05:45;4.28;;;3.88;;
38513;SDS011;24282;48.400;10.808;2023-07-13T04:08:12;3.97;;;3.58;;
38513;SDS011;24282;48.400;10.808;2023-07-13T04:10:38;2.95;;;2.25;;
38513;SDS011;24282;48.400;10.808;2023-07-13T04:13:04;2.35;;;1.67;;
38513;SDS011;24282;48.400;10.808;2023-07-13T04:15:30;3.83;;;1.50;;
38513;SDS011;24282;48.400;10.808;2023-07-13T04:17:57;2.92;;;1.83;;
38513;SDS011;24282;48.400;10.808;2023-07-13T04:20:23;2.78;;;2.10;;
38513;SDS011;24282;48.400;10.808;2023-07-13T04:22:50;3.38;;;2.05;;
38513;SDS011;24282;48.400;10.808;2023-07-13T04:25:16;2.83;;;2.28;;
38513;SDS011;24282;48.400;10.808;2023-07-13T04:27:42;3.13;;;2.13;;
38513;SDS011;24282;48.400;10.808;2023-07-13T04:30:08;1.80;;;1.58;;
38513;SDS011;24282;48.400;10.808;2023-07-13T04:32:34;3.08;;;2.10;;
38513;SDS011;24282;48.400;10.808;2023-07-13T04:34:59;1.90;;;1.70;;
38513;SDS011;24282;48.400;10.808;2023-07-13T04:37:25;2.42;;;2.08;;
38513;SDS011;24282;48.400;10.808;2023-07-13T04:39:52;6.25;;;5.20;;
38513;SDS011;24282;48.400;10.808;2023-07-13T04:42:17;7.80;;;6.95;;
38513;SDS011;24282;48.400;10.808;2023-07-13T04:44:47;4.53;;;3.50;;
38513;SDS011;24282;48.400;10.808;2023-07-13T04:47:17;2.90;;;2.17;;
38513;SDS011;24282;48.400;10.808;2023-07-13T04:49:43;2.40;;;1.70;;
38513;SDS011;24282;48.400;10.808;2023-07-13T04:52:09;3.05;;;1.83;;
38513;SDS011;24282;48.400;10.808;2023-07-13T04:54:35;3.72;;;1.77;;
38513;SDS011;24282;48.400;10.808;2023-07-13T04:57:02;3.72;;;1.80;;
38513;SDS011;24282;48.400;10.808;2023-07-13T04:59:31;2.35;;;1.65;;
38513;SDS011;24282;48.400;10.808;2023-07-13T05:01:58;2.15;;;1.70;;
38513;SDS011;24282;48.400;10.808;2023-07-13T05:04:23;3.03;;;1.65;;
38513;SDS011;24282;48.400;10.808;2023-07-13T05:06:49;3.17;;;1.73;;
38513;SDS011;24282;48.400;10.808;2023-07-13T05:09:15;2.05;;;1.58;;
38513;SDS011;24282;48.400;10.808;2023-07-13T05:11:41;2.42;;;1.65;;
38513;SDS011;24282;48.400;10.808;2023-07-13T05:14:06;2.53;;;1.42;;
38513;SDS011;24282;48.400;10.808;2023-07-13T05:16:34;2.53;;;1.65;;
38513;SDS011;24282;48.400;10.808;2023-07-13T05:19:00;2.75;;;1.75;;
38513;SDS011;24282;48.400;10.808;2023-07-13T05:21:26;2.00;;;1.60;;
38513;SDS011;24282;48.400;10.808;2023-07-13T05:23:52;2.10;;;1.50;;
38513;SDS011;24282;48.400;10.808;2023-07-13T05:26:18;2.95;;;1.70;;
38513;SDS011;24282;48.400;10.808;2023-07-13T05:28:43;2.83;;;1.42;;
38513;SDS011;24282;48.400;10.808;2023-07-13T05:31:09;2.65;;;1.60;;
38513;SDS011;24282;48.400;10.808;2023-07-13T05:33:35;1.67;;;1.30;;
38513;SDS011;24282;48.400;10.808;2023-07-13T05:36:01;4.18;;;1.77;;
38513;SDS011;24282;48.400;10.808;2023-07-13T05:38:27;1.63;;;1.20;;
38513;SDS011;24282;48.400;10.808;2023-07-13T05:40:54;2.58;;;1.33;;
38513;SDS011;24282;48.400;10.808;2023-07-13T05:43:21;2.20;;;1.50;;
38513;SDS011;24282;48.400;10.808;2023-07-13T05:45:47;2.10;;;1.40;;
38513;SDS011;24282;48.400;10.808;2023-07-13T05:48:14;2.65;;;1.42;;
38513;SDS011;24282;48.400;10.808;2023-07-13T05:50:40;2.13;;;1.27;;
38513;SDS011;24282;48.400;10.808;2023-07-13T05:53:06;2.60;;;1.30;;
38513;SDS011;24282;48.400;10.808;2023-07-13T05:55:32;1.45;;;1.13;;
38513;SDS011;24282;48.400;10.808;2023-07-13T05:57:58;1.88;;;1.10;;
38513;SDS011;24282;48.400;10.808;2023-07-13T06:00:25;2.05;;;1.35;;
38513;SDS011;24282;48.400;10.808;2023-07-13T06:02:51;3.00;;;1.50;;
38513;SDS011;24282;48.400;10.808;2023-07-13T06:05:17;1.88;;;1.00;;
38513;SDS011;24282;48.400;10.808;2023-07-13T06:07:43;1.58;;;1.23;;
38513;SDS011;24282;48.400;10.808;2023-07-13T06:10:09;2.38;;;1.30;;
38513;SDS011;24282;48.400;10.808;2023-07-13T06:12:35;4.05;;;1.20;;
38513;SDS011;24282;48.400;10.808;2023-07-13T06:15:00;1.83;;;1.38;;
38513;SDS011;24282;48.400;10.808;2023-07-13T06:17:26;2.67;;;1.48;;
38513;SDS011;24282;48.400;10.808;2023-07-13T06:19:52;2.72;;;1.20;;
38513;SDS011;24282;48.400;10.808;2023-07-13T06:22:18;2.03;;;1.20;;
38513;SDS011;24282;48.400;10.808;2023-07-13T06:24:43;2.58;;;1.45;;
38513;SDS011;24282;48.400;10.808;2023-07-13T06:27:09;2.00;;;1.40;;
38513;SDS011;24282;48.400;10.808;2023-07-13T06:29:35;3.75;;;2.60;;
38513;SDS011;24282;48.400;10.808;2023-07-13T06:32:01;3.03;;;1.83;;
38513;SDS011;24282;48.400;10.808;2023-07-13T06:34:27;2.17;;;1.35;;
38513;SDS011;24282;48.400;10.808;2023-07-13T06:36:52;1.90;;;1.40;;
38513;SDS011;24282;48.400;10.808;2023-07-13T06:39:18;1.63;;;1.25;;
38513;SDS011;24282;48.400;10.808;2023-07-13T06:41:44;2.67;;;1.42;;
38513;SDS011;24282;48.400;10.808;2023-07-13T06:44:12;1.75;;;1.17;;
38513;SDS011;24282;48.400;10.808;2023-07-13T06:46:38;1.60;;;1.20;;
38513;SDS011;24282;48.400;10.808;2023-07-13T06:49:04;3.22;;;1.58;;
38513;SDS011;24282;48.400;10.808;2023-07-13T06:51:29;1.90;;;1.27;;
38513;SDS011;24282;48.400;10.808;2023-07-13T06:53:55;4.05;;;1.75;;
38513;SDS011;24282;48.400;10.808;2023-07-13T06:56:21;2.50;;;1.60;;
38513;SDS011;24282;48.400;10.808;2023-07-13T06:58:47;2.20;;;1.45;;
38513;SDS011;24282;48.400;10.808;2023-07-13T07:01:12;2.45;;;1.48;;
38513;SDS011;24282;48.400;10.808;2023-07-13T07:03:38;2.72;;;1.30;;
38513;SDS011;24282;48.400;10.808;2023-07-13T07:06:15;2.03;;;1.10;;
38513;SDS011;24282;48.400;10.808;2023-07-13T07:08:43;1.85;;;1.65;;
38513;SDS011;24282;48.400;10.808;2023-07-13T07:11:14;2.53;;;1.30;;
38513;SDS011;24282;48.400;10.808;2023-07-13T07:13:42;2.13;;;1.30;;
38513;SDS011;24282;48.400;10.808;2023-07-13T07:16:07;2.28;;;1.40;;
38513;SDS011;24282;48.400;10.808;2023-07-13T07:18:34;1.98;;;1.00;;
38513;SDS011;24282;48.400;10.808;2023-07-13T07:21:00;1.27;;;1.08;;
38513;SDS011;24282;48.400;10.808;2023-07-13T07:23:26;3.28;;;1.35;;
38513;SDS011;24282;48.400;10.808;2023-07-13T07:25:51;3.10;;;1.50;;
38513;SDS011;24282;48.400;10.808;2023-07-13T07:28:17;2.00;;;1.10;;
38513;SDS011;24282;48.400;10.808;2023-07-13T07:30:44;3.03;;;1.60;;
38513;SDS011;24282;48.400;10.808;2023-07-13T07:33:10;2.30;;;1.15;;
38513;SDS011;24282;48.400;10.808;2023-07-13T07:35:36;3.42;;;1.10;;
38513;SDS011;24282;48.400;10.808;2023-07-13T07:38:02;6.32;;;1.30;;
38513;SDS011;24282;48.400;10.808;2023-07-13T07:40:28;1.67;;;0.90;;
38513;SDS011;24282;48.400;10.808;2023-07-13T07:42:54;3.72;;;1.20;;
38513;SDS011;24282;48.400;10.808;2023-07-13T07:45:20;3.67;;;1.40;;
38513;SDS011;24282;48.400;10.808;2023-07-13T07:47:46;1.33;;;1.00;;
38513;SDS011;24282;48.400;10.808;2023-07-13T07:50:12;2.28;;;1.00;;
38513;SDS011;24282;48.400;10.808;2023-07-13T07:52:38;2.25;;;0.93;;
38513;SDS011;24282;48.400;10.808;2023-07-13T07:55:04;2.08;;;1.13;;
38513;SDS011;24282;48.400;10.808;2023-07-13T07:57:31;2.13;;;1.08;;
38513;SDS011;24282;48.400;10.808;2023-07-13T07:59:57;1.85;;;1.05;;
38513;SDS011;24282;48.400;10.808;2023-07-13T08:02:24;2.25;;;1.33;;
38513;SDS011;24282;48.400;10.808;2023-07-13T08:04:50;3.42;;;1.58;;
38513;SDS011;24282;48.400;10.808;2023-07-13T08:07:16;2.13;;;1.30;;
38513;SDS011;24282;48.400;10.808;2023-07-13T08:09:42;2.78;;;0.90;;
38513;SDS011;24282;48.400;10.808;2023-07-13T08:12:08;3.17;;;1.00;;
38513;SDS011;24282;48.400;10.808;2023-07-13T08:14:34;3.22;;;1.00;;
38513;SDS011;24282;48.400;10.808;2023-07-13T08:16:59;2.72;;;1.08;;
38513;SDS011;24282;48.400;10.808;2023-07-13T08:19:25;2.63;;;1.10;;
38513;SDS011;24282;48.400;10.808;2023-07-13T08:21:51;2.78;;;1.10;;
38513;SDS011;24282;48.400;10.808;2023-07-13T08:24:16;1.73;;;1.05;;
38513;SDS011;24282;48.400;10.808;2023-07-13T08:26:44;2.13;;;1.38;;
38513;SDS011;24282;48.400;10.808;2023-07-13T08:29:11;1.88;;;0.90;;
38513;SDS011;24282;48.400;10.808;2023-07-13T08:31:37;1.80;;;0.85;;
38513;SDS011;24282;48.400;10.808;2023-07-13T08:34:03;2.25;;;1.20;;
38513;SDS011;24282;48.400;10.808;2023-07-13T08:36:29;3.25;;;1.00;;
38513;SDS011;24282;48.400;10.808;2023-07-13T08:38:55;1.42;;;1.00;;
38513;SDS011;24282;48.400;10.808;2023-07-13T08:41:20;1.27;;;0.90;;
38513;SDS011;24282;48.400;10.808;2023-07-13T08:43:51;3.97;;;1.35;;
38513;SDS011;24282;48.400;10.808;2023-07-13T08:46:34;2.20;;;1.35;;
38513;SDS011;24282;48.400;10.808;2023-07-13T08:49:35;1.90;;;1.10;;
38513;SDS011;24282;48.400;10.808;2023-07-13T08:52:30;1.73;;;1.00;;
38513;SDS011;24282;48.400;10.808;2023-07-13T08:54:49;1.42;;;0.75;;
38513;SDS011;24282;48.400;10.808;2023-07-13T08:57:21;2.60;;;1.20;;
38513;SDS011;24282;48.400;10.808;2023-07-13T08:59:55;3.53;;;1.20;;
38513;SDS011;24282;48.400;10.808;2023-07-13T09:05:41;1.75;;;0.88;;
38513;SDS011;24282;48.400;10.808;2023-07-13T09:10:53;2.17;;;0.90;;
38513;SDS011;24282;48.400;10.808;2023-07-13T09:13:37;1.73;;;0.90;;
38513;SDS011;24282;48.400;10.808;2023-07-13T09:16:12;2.22;;;0.82;;
38513;SDS011;24282;48.400;10.808;2023-07-13T09:18:38;2.92;;;1.10;;
38513;SDS011;24282;48.400;10.808;2023-07-13T09:21:10;1.73;;;0.90;;
38513;SDS011;24282;48.400;10.808;2023-07-13T09:23:45;2.22;;;1.00;;
38513;SDS011;24282;48.400;10.808;2023-07-13T09:28:42;2.40;;;0.90;;
38513;SDS011;24282;48.400;10.808;2023-07-13T09:31:14;1.83;;;0.82;;
38513;SDS011;24282;48.400;10.808;2023-07-13T09:33:44;2.85;;;0.93;;
38513;SDS011;24282;48.400;10.808;2023-07-13T09:42:17;3.00;;;1.00;;
38513;SDS011;24282;48.400;10.808;2023-07-13T09:47:17;2.05;;;1.05;;
38513;SDS011;24282;48.400;10.808;2023-07-13T09:49:44;1.52;;;0.80;;
38513;SDS011;24282;48.400;10.808;2023-07-13T09:52:11;1.80;;;0.98;;
38513;SDS011;24282;48.400;10.808;2023-07-13T09:54:41;1.45;;;1.00;;
38513;SDS011;24282;48.400;10.808;2023-07-13T09:57:14;1.02;;;0.93;;
38513;SDS011;24282;48.400;10.808;2023-07-13T09:59:48;2.77;;;1.20;;
38513;SDS011;24282;48.400;10.808;2023-07-13T10:07:34;0.80;;;0.70;;
38513;SDS011;24282;48.400;10.808;2023-07-13T10:10:12;1.45;;;0.80;;
38513;SDS011;24282;48.400;10.808;2023-07-13T10:12:43;0.90;;;0.70;;
38513;SDS011;24282;48.400;10.808;2023-07-13T10:15:19;2.08;;;1.00;;
38513;SDS011;24282;48.400;10.808;2023-07-13T10:17:47;1.45;;;0.70;;
38513;SDS011;24282;48.400;10.808;2023-07-13T10:20:15;1.42;;;0.60;;
38513;SDS011;24282;48.400;10.808;2023-07-13T10:22:47;1.20;;;0.70;;
38513;SDS011;24282;48.400;10.808;2023-07-13T10:25:28;1.05;;;0.60;;
38513;SDS011;24282;48.400;10.808;2023-07-13T10:30:48;0.93;;;0.70;;
38513;SDS011;24282;48.400;10.808;2023-07-13T10:33:14;1.45;;;0.70;;
38513;SDS011;24282;48.400;10.808;2023-07-13T10:35:42;2.35;;;0.90;;
38513;SDS011;24282;48.400;10.808;2023-07-13T10:38:12;1.52;;;0.80;;
38513;SDS011;24282;48.400;10.808;2023-07-13T10:43:17;2.27;;;0.80;;
38513;SDS011;24282;48.400;10.808;2023-07-13T10:45:52;1.40;;;0.80;;
38513;SDS011;24282;48.400;10.808;2023-07-13T10:48:19;0.82;;;0.60;;
38513;SDS011;24282;48.400;10.808;2023-07-13T10:50:48;3.35;;;0.88;;
38513;SDS011;24282;48.400;10.808;2023-07-13T11:09:19;1.38;;;0.70;;
38513;SDS011;24282;48.400;10.808;2023-07-13T11:12:00;1.33;;;0.85;;
38513;SDS011;24282;48.400;10.808;2023-07-13T11:14:29;2.70;;;1.10;;
38513;SDS011;24282;48.400;10.808;2023-07-13T11:17:23;1.42;;;0.60;;
38513;SDS011;24282;48.400;10.808;2023-07-13T11:20:09;2.17;;;0.70;;
38513;SDS011;24282;48.400;10.808;2023-07-13T11:22:43;1.35;;;0.60;;
38513;SDS011;24282;48.400;10.808;2023-07-13T11:25:30;2.72;;;0.90;;
38513;SDS011;24282;48.400;10.808;2023-07-13T11:30:40;2.15;;;0.75;;
38513;SDS011;24282;48.400;10.808;2023-07-13T11:36:19;3.33;;;0.98;;
38513;SDS011;24282;48.400;10.808;2023-07-13T11:38:51;1.20;;;0.73;;
38513;SDS011;24282;48.400;10.808;2023-07-13T11:41:50;1.48;;;0.70;;
38513;SDS011;24282;48.400;10.808;2023-07-13T11:44:19;1.88;;;0.88;;
38513;SDS011;24282;48.400;10.808;2023-07-13T11:47:28;1.65;;;0.95;;
38513;SDS011;24282;48.400;10.808;2023-07-13T11:49:47;2.25;;;0.80;;
38513;SDS011;24282;48.400;10.808;2023-07-13T11:52:15;1.35;;;0.70;;
38513;SDS011;24282;48.400;10.808;2023-07-13T11:54:49;1.77;;;0.70;;
38513;SDS011;24282;48.400;10.808;2023-07-13T11:57:23;2.05;;;0.85;;
38513;SDS011;24282;48.400;10.808;2023-07-13T11:59:54;1.52;;;0.63;;
38513;SDS011;24282;48.400;10.808;2023-07-13T12:02:43;1.00;;;0.68;;
38513;SDS011;24282;48.400;10.808;2023-07-13T12:05:12;1.33;;;0.82;;
38513;SDS011;24282;48.400;10.808;2023-07-13T12:07:39;1.45;;;0.75;;
38513;SDS011;24282;48.400;10.808;2023-07-13T12:12:37;2.17;;;0.88;;
38513;SDS011;24282;48.400;10.808;2023-07-13T12:15:10;2.85;;;0.90;;
38513;SDS011;24282;48.400;10.808;2023-07-13T12:17:37;1.35;;;0.60;;
38513;SDS011;24282;48.400;10.808;2023-07-13T12:20:07;4.32;;;1.08;;
38513;SDS011;24282;48.400;10.808;2023-07-13T12:22:50;1.10;;;0.57;;
38513;SDS011;24282;48.400;10.808;2023-07-13T12:25:17;1.25;;;0.70;;
38513;SDS011;24282;48.400;10.808;2023-07-13T12:27:50;1.98;;;0.77;;
38513;SDS011;24282;48.400;10.808;2023-07-13T12:35:51;1.00;;;0.70;;
38513;SDS011;24282;48.400;10.808;2023-07-13T12:38:17;1.70;;;0.80;;
38513;SDS011;24282;48.400;10.808;2023-07-13T12:40:48;2.70;;;0.90;;
38513;SDS011;24282;48.400;10.808;2023-07-13T12:43:15;2.05;;;0.77;;
38513;SDS011;24282;48.400;10.808;2023-07-13T12:48:43;3.83;;;0.73;;
38513;SDS011;24282;48.400;10.808;2023-07-13T12:51:13;2.55;;;0.93;;
38513;SDS011;24282;48.400;10.808;2023-07-13T12:53:41;2.53;;;0.75;;
38513;SDS011;24282;48.400;10.808;2023-07-13T12:56:18;1.15;;;0.60;;
38513;SDS011;24282;48.400;10.808;2023-07-13T12:58:49;1.30;;;0.70;;
38513;SDS011;24282;48.400;10.808;2023-07-13T13:01:20;3.03;;;1.00;;
38513;SDS011;24282;48.400;10.808;2023-07-13T13:03:51;1.95;;;0.63;;
38513;SDS011;24282;48.400;10.808;2023-07-13T13:08:47;1.58;;;0.90;;
38513;SDS011;24282;48.400;10.808;2023-07-13T13:11:21;1.85;;;0.70;;
38513;SDS011;24282;48.400;10.808;2023-07-13T13:13:48;2.05;;;1.00;;
38513;SDS011;24282;48.400;10.808;2023-07-13T13:18:43;1.48;;;0.75;;
38513;SDS011;24282;48.400;10.808;2023-07-13T13:21:09;2.50;;;0.77;;
38513;SDS011;24282;48.400;10.808;2023-07-13T13:23:36;1.75;;;0.88;;
38513;SDS011;24282;48.400;10.808;2023-07-13T13:26:02;4.65;;;0.80;;
38513;SDS011;24282;48.400;10.808;2023-07-13T13:28:28;0.82;;;0.60;;
38513;SDS011;24282;48.400;10.808;2023-07-13T13:30:54;2.25;;;0.80;;
38513;SDS011;24282;48.400;10.808;2023-07-13T13:33:21;1.58;;;0.80;;
38513;SDS011;24282;48.400;10.808;2023-07-13T13:35:46;0.90;;;0.60;;
38513;SDS011;24282;48.400;10.808;2023-07-13T13:38:16;2.70;;;0.75;;
38513;SDS011;24282;48.400;10.808;2023-07-13T13:40:45;1.97;;;0.70;;
38513;SDS011;24282;48.400;10.808;2023-07-13T13:43:14;2.72;;;0.80;;
38513;SDS011;24282;48.400;10.808;2023-07-13T13:45:44;1.55;;;0.70;;
38513;SDS011;24282;48.400;10.808;2023-07-13T13:48:18;2.35;;;0.70;;
38513;SDS011;24282;48.400;10.808;2023-07-13T13:50:47;1.55;;;0.70;;
38513;SDS011;24282;48.400;10.808;2023-07-13T13:53:14;3.10;;;0.85;;
38513;SDS011;24282;48.400;10.808;2023-07-13T13:55:40;2.45;;;0.77;;
38513;SDS011;24282;48.400;10.808;2023-07-13T13:58:10;1.02;;;0.68;;
38513;SDS011;24282;48.400;10.808;2023-07-13T14:00:36;1.55;;;0.77;;
38513;SDS011;24282;48.400;10.808;2023-07-13T14:03:03;1.48;;;0.77;;
38513;SDS011;24282;48.400;10.808;2023-07-13T14:05:29;2.85;;;0.90;;
38513;SDS011;24282;48.400;10.808;2023-07-13T14:07:55;2.83;;;0.70;;
38513;SDS011;24282;48.400;10.808;2023-07-13T14:10:25;2.20;;;0.80;;
38513;SDS011;24282;48.400;10.808;2023-07-13T14:12:52;2.90;;;0.80;;
38513;SDS011;24282;48.400;10.808;2023-07-13T14:15:23;1.95;;;0.93;;
38513;SDS011;24282;48.400;10.808;2023-07-13T14:17:51;1.33;;;0.60;;
38513;SDS011;24282;48.400;10.808;2023-07-13T14:20:18;2.13;;;0.73;;
38513;SDS011;24282;48.400;10.808;2023-07-13T14:22:45;1.58;;;0.80;;
38513;SDS011;24282;48.400;10.808;2023-07-13T14:25:12;1.40;;;0.68;;
38513;SDS011;24282;48.400;10.808;2023-07-13T14:27:39;1.77;;;0.70;;
38513;SDS011;24282;48.400;10.808;2023-07-13T14:30:13;1.20;;;0.60;;
38513;SDS011;24282;48.400;10.808;2023-07-13T14:32:39;1.90;;;0.90;;
38513;SDS011;24282;48.400;10.808;2023-07-13T14:35:06;0.85;;;0.55;;
38513;SDS011;24282;48.400;10.808;2023-07-13T14:37:35;1.35;;;0.70;;
38513;SDS011;24282;48.400;10.808;2023-07-13T14:40:01;1.23;;;0.60;;
38513;SDS011;24282;48.400;10.808;2023-07-13T14:42:27;2.58;;;0.80;;
38513;SDS011;24282;48.400;10.808;2023-07-13T14:44:53;3.33;;;0.93;;
38513;SDS011;24282;48.400;10.808;2023-07-13T14:47:19;0.80;;;0.65;;
38513;SDS011;24282;48.400;10.808;2023-07-13T14:49:45;2.25;;;0.85;;
38513;SDS011;24282;48.400;10.808;2023-07-13T14:52:17;1.45;;;0.73;;
38513;SDS011;24282;48.400;10.808;2023-07-13T14:54:45;2.58;;;1.25;;
38513;SDS011;24282;48.400;10.808;2023-07-13T14:57:12;0.77;;;0.60;;
38513;SDS011;24282;48.400;10.808;2023-07-13T14:59:39;1.58;;;0.80;;
38513;SDS011;24282;48.400;10.808;2023-07-13T15:02:15;1.27;;;0.75;;
38513;SDS011;24282;48.400;10.808;2023-07-13T15:04:43;1.05;;;0.63;;
38513;SDS011;24282;48.400;10.808;2023-07-13T15:07:09;1.55;;;0.70;;
38513;SDS011;24282;48.400;10.808;2023-07-13T15:09:36;1.15;;;0.55;;
38513;SDS011;24282;48.400;10.808;2023-07-13T15:12:02;0.77;;;0.60;;
38513;SDS011;24282;48.400;10.808;2023-07-13T15:14:28;1.20;;;0.70;;
38513;SDS011;24282;48.400;10.808;2023-07-13T15:16:54;0.95;;;0.50;;
38513;SDS011;24282;48.400;10.808;2023-07-13T15:19:21;1.17;;;0.55;;
38513;SDS011;24282;48.400;10.808;2023-07-13T15:21:48;2.65;;;0.70;;
38513;SDS011;24282;48.400;10.808;2023-07-13T15:24:15;1.65;;;0.80;;
38513;SDS011;24282;48.400;10.808;2023-07-13T15:26:41;1.50;;;0.75;;
38513;SDS011;24282;48.400;10.808;2023-07-13T15:29:10;2.55;;;0.80;;
38513;SDS011;24282;48.400;10.808;2023-07-13T15:31:36;1.45;;;0.70;;
38513;SDS011;24282;48.400;10.808;2023-07-13T15:34:07;1.10;;;0.60;;
38513;SDS011;24282;48.400;10.808;2023-07-13T15:36:42;0.75;;;0.57;;
38513;SDS011;24282;48.400;10.808;2023-07-13T15:39:10;3.17;;;0.90;;
38513;SDS011;24282;48.400;10.808;2023-07-13T15:41:41;0.85;;;0.70;;
38513;SDS011;24282;48.400;10.808;2023-07-13T15:44:24;0.60;;;0.50;;
38513;SDS011;24282;48.400;10.808;2023-07-13T15:46:53;1.50;;;0.80;;
38513;SDS011;24282;48.400;10.808;2023-07-13T15:49:19;1.20;;;0.65;;
38513;SDS011;24282;48.400;10.808;2023-07-13T15:51:45;0.98;;;0.50;;
38513;SDS011;24282;48.400;10.808;2023-07-13T15:54:13;2.05;;;0.80;;